Time;durP1;ratioP1;P1;durP2;ratioP2;P2;SDS_P1;SDS_P2;PMS_P1;PMS_P2;Temp;Humidity;BMP_temperature;BMP_pressure;BME280_temperature;BME280_humidity;BME280_pressure;Samples;Min_cycle;Max_cycle;Signal;HPM_P1;HPM_P2
2023/06/27 00:01:39;;;;;;;3.50;1.42;;;15.10;99.90;;;;;;5054327;28;20028;-61
2023/06/27 00:04:05;;;;;;;4.35;1.52;;;15.20;99.90;;;;;;5054400;28;20041;-54
2023/06/27 00:06:31;;;;;;;5.32;1.45;;;15.10;99.90;;;;;;5054207;28;20096;-60
2023/06/27 00:08:56;;;;;;;5.40;1.40;;;15.00;99.90;;;;;;5054197;28;20108;-58
2023/06/27 00:11:22;;;;;;;7.63;2.17;;;15.10;99.90;;;;;;5054358;28;20087;-61
2023/06/27 00:13:49;;;;;;;5.30;1.27;;;15.10;99.90;;;;;;5054069;28;20091;-56
2023/06/27 00:16:15;;;;;;;3.40;1.60;;;15.10;99.90;;;;;;5053928;28;20021;-59
2023/06/27 00:18:47;;;;;;;8.95;1.67;;;15.20;99.90;;;;;;5053915;28;20447;-57
2023/06/27 00:21:16;;;;;;;4.97;1.52;;;15.10;99.90;;;;;;5054167;28;20772;-58
2023/06/27 00:23:43;;;;;;;3.72;1.05;;;15.10;99.90;;;;;;5053911;28;20021;-54
2023/06/27 00:26:09;;;;;;;1.75;1.10;;;15.10;99.90;;;;;;5053821;28;20017;-61
2023/06/27 00:28:35;;;;;;;5.63;1.40;;;15.20;99.90;;;;;;5053882;28;20033;-61
2023/06/27 00:31:00;;;;;;;6.07;1.00;;;15.20;99.90;;;;;;5053935;28;20086;-54
2023/06/27 00:33:26;;;;;;;6.07;1.30;;;15.20;99.90;;;;;;5053872;28;20474;-53
2023/06/27 00:35:51;;;;;;;8.68;1.52;;;15.10;99.90;;;;;;5053774;28;20049;-59
2023/06/27 00:38:17;;;;;;;2.22;1.40;;;15.10;99.90;;;;;;5053524;28;20028;-61
2023/06/27 00:40:43;;;;;;;8.27;1.45;;;15.10;99.90;;;;;;5052758;28;20040;-57
2023/06/27 00:43:08;;;;;;;4.07;1.35;;;15.10;99.90;;;;;;5053561;28;20498;-59
2023/06/27 00:45:34;;;;;;;1.50;1.30;;;15.10;99.90;;;;;;5053428;28;20025;-57
2023/06/27 00:48:00;;;;;;;5.13;1.35;;;15.10;99.90;;;;;;5053380;28;20029;-56
2023/06/27 00:50:27;;;;;;;4.03;1.42;;;15.10;99.90;;;;;;5053733;28;20032;-53
2023/06/27 00:52:53;;;;;;;3.30;1.42;;;15.10;99.90;;;;;;5053436;28;20167;-59
2023/06/27 00:55:20;;;;;;;7.57;1.40;;;15.20;99.90;;;;;;5053408;28;20025;-61
2023/06/27 00:57:46;;;;;;;4.95;1.38;;;15.30;99.90;;;;;;5053081;28;20056;-59
2023/06/27 01:00:13;;;;;;;2.58;1.60;;;15.40;99.90;;;;;;5053372;28;20021;-57
2023/06/27 01:02:39;;;;;;;2.58;1.17;;;15.40;99.90;;;;;;5053179;28;20100;-57
2023/06/27 01:05:06;;;;;;;3.95;1.42;;;15.40;99.90;;;;;;5053246;28;20056;-57
2023/06/27 01:07:36;;;;;;;3.10;1.40;;;15.40;99.90;;;;;;5053119;28;20517;-56
2023/06/27 01:10:21;;;;;;;3.55;1.52;;;15.40;99.90;;;;;;5053068;28;20120;-59
2023/06/27 01:12:49;;;;;;;6.93;1.60;;;15.40;99.90;;;;;;5053005;28;20031;-57
2023/06/27 01:15:15;;;;;;;6.68;1.90;;;15.50;99.90;;;;;;5052971;28;20017;-56
2023/06/27 01:17:41;;;;;;;3.25;1.50;;;15.50;99.90;;;;;;5052720;28;20013;-56
2023/06/27 01:20:08;;;;;;;5.28;1.13;;;15.50;99.90;;;;;;5053011;28;20021;-57
2023/06/27 01:22:42;;;;;;;2.60;1.30;;;15.40;99.90;;;;;;5052496;28;20021;-57
2023/06/27 01:25:09;;;;;;;7.00;1.63;;;15.50;99.90;;;;;;5052859;28;20017;-53
2023/06/27 01:27:34;;;;;;;2.85;1.63;;;15.40;99.90;;;;;;5052651;28;20471;-59
2023/06/27 01:30:00;;;;;;;4.30;1.30;;;15.40;99.90;;;;;;5052759;28;20024;-58
2023/06/27 01:32:32;;;;;;;4.60;2.15;;;15.40;99.90;;;;;;5052805;28;20013;-59
2023/06/27 01:35:07;;;;;;;4.97;1.30;;;15.40;99.90;;;;;;5052678;28;20398;-60
2023/06/27 01:37:38;;;;;;;5.60;1.38;;;15.40;99.90;;;;;;5052460;28;20182;-59
2023/06/27 01:40:10;;;;;;;4.53;1.60;;;15.40;99.90;;;;;;5052580;28;20475;-57
2023/06/27 01:42:42;;;;;;;5.65;2.20;;;15.50;99.90;;;;;;5052490;28;20017;-56
2023/06/27 01:45:09;;;;;;;3.60;1.55;;;15.50;99.90;;;;;;5052488;28;20049;-60
2023/06/27 01:47:42;;;;;;;2.65;1.50;;;15.50;99.90;;;;;;5052191;28;20096;-59
2023/06/27 01:50:12;;;;;;;4.72;1.70;;;15.50;99.90;;;;;;5052452;28;20021;-61
2023/06/27 01:52:38;;;;;;;4.43;1.30;;;15.50;99.90;;;;;;5052131;28;20024;-60
2023/06/27 01:55:04;;;;;;;3.25;1.80;;;15.40;99.90;;;;;;5052266;28;20017;-55
2023/06/27 01:57:30;;;;;;;8.10;1.92;;;15.50;99.90;;;;;;5054471;28;20017;-61
2023/06/27 01:59:55;;;;;;;4.10;1.60;;;15.50;99.90;;;;;;5057696;28;20617;-61
2023/06/27 02:02:21;;;;;;;5.10;1.27;;;15.60;99.90;;;;;;5061024;28;20013;-62
2023/06/27 02:04:47;;;;;;;6.20;1.88;;;15.50;99.90;;;;;;5055533;28;20040;-58
2023/06/27 02:07:13;;;;;;;8.48;1.60;;;15.50;99.90;;;;;;5051917;28;20053;-61
2023/06/27 02:09:38;;;;;;;12.05;1.52;;;15.50;99.90;;;;;;5051948;28;20510;-61
2023/06/27 02:12:04;;;;;;;5.30;1.35;;;15.60;99.90;;;;;;5052083;28;20067;-61
2023/06/27 02:14:31;;;;;;;9.02;2.00;;;15.50;99.90;;;;;;5051792;28;20402;-59
2023/06/27 02:16:57;;;;;;;8.43;1.83;;;15.50;99.90;;;;;;5051590;28;20025;-61
2023/06/27 02:19:22;;;;;;;4.75;1.92;;;15.40;99.90;;;;;;5051843;28;20024;-59
2023/06/27 02:21:49;;;;;;;4.30;1.52;;;15.40;99.90;;;;;;5051842;28;20134;-61
2023/06/27 02:24:15;;;;;;;7.35;1.83;;;15.40;99.90;;;;;;5051634;28;20028;-61
2023/06/27 02:26:40;;;;;;;5.00;2.13;;;15.30;99.90;;;;;;5051418;28;20025;-61
2023/06/27 02:29:06;;;;;;;6.28;1.90;;;15.40;99.90;;;;;;5051693;28;20033;-61
2023/06/27 02:31:31;;;;;;;5.22;2.00;;;15.30;99.90;;;;;;5051816;28;20383;-60
2023/06/27 02:33:57;;;;;;;4.20;1.58;;;15.20;99.90;;;;;;5051528;28;20090;-57
2023/06/27 02:36:25;;;;;;;5.22;2.28;;;15.10;99.90;;;;;;5051510;28;20029;-57
2023/06/27 02:38:54;;;;;;;7.13;2.38;;;15.10;99.90;;;;;;5051455;28;20013;-61
2023/06/27 02:41:21;;;;;;;3.10;1.70;;;15.00;99.90;;;;;;5051509;28;20025;-54
2023/06/27 02:43:46;;;;;;;11.68;2.53;;;14.90;99.90;;;;;;5051201;28;20071;-57
2023/06/27 02:46:12;;;;;;;3.33;2.40;;;14.80;99.90;;;;;;5051262;28;20306;-55
2023/06/27 02:48:37;;;;;;;4.28;2.00;;;14.80;99.90;;;;;;5051339;28;20028;-54
2023/06/27 02:51:03;;;;;;;6.03;2.15;;;14.80;99.90;;;;;;5051500;28;20032;-60
2023/06/27 02:53:28;;;;;;;5.53;2.17;;;14.70;99.90;;;;;;5051329;28;20062;-59
2023/06/27 02:55:56;;;;;;;8.18;2.40;;;14.60;99.90;;;;;;5051249;28;20029;-59
2023/06/27 02:58:22;;;;;;;14.93;2.53;;;14.70;99.90;;;;;;5050946;28;20501;-58
2023/06/27 03:00:47;;;;;;;7.88;2.50;;;14.70;99.90;;;;;;5051240;28;20029;-60
2023/06/27 03:03:13;;;;;;;9.27;2.42;;;14.80;99.90;;;;;;5051666;28;20036;-56
2023/06/27 03:05:38;;;;;;;10.40;2.47;;;14.70;99.90;;;;;;5057608;28;20021;-56
2023/06/27 03:08:04;;;;;;;12.70;2.85;;;14.70;99.90;;;;;;5057745;28;20029;-61
2023/06/27 03:10:29;;;;;;;10.15;2.70;;;14.80;99.90;;;;;;5057922;28;20021;-59
2023/06/27 03:12:55;;;;;;;9.65;2.47;;;14.70;99.90;;;;;;5057675;28;20082;-57
2023/06/27 03:15:21;;;;;;;9.65;3.28;;;14.80;99.90;;;;;;5057776;28;20406;-59
2023/06/27 03:17:46;;;;;;;15.52;3.05;;;14.80;99.90;;;;;;5057529;28;20025;-58
2023/06/27 03:20:12;;;;;;;9.60;3.47;;;14.80;99.90;;;;;;5057862;28;20021;-56
2023/06/27 03:22:37;;;;;;;11.32;3.00;;;14.80;99.90;;;;;;5057655;28;20029;-56
2023/06/27 03:25:03;;;;;;;7.35;2.63;;;14.80;99.90;;;;;;5057664;28;20075;-57
2023/06/27 03:27:29;;;;;;;7.00;2.58;;;14.70;99.90;;;;;;5057380;28;20526;-58
2023/06/27 03:29:54;;;;;;;11.18;2.42;;;14.70;99.90;;;;;;5057596;28;20033;-54
2023/06/27 03:32:20;;;;;;;6.10;2.17;;;14.80;99.90;;;;;;5057793;28;20021;-56
2023/06/27 03:34:47;;;;;;;11.88;2.85;;;14.70;99.90;;;;;;5057523;28;20040;-59
2023/06/27 03:37:12;;;;;;;9.48;2.97;;;14.70;99.90;;;;;;5057565;28;20017;-58
2023/06/27 03:39:38;;;;;;;5.70;2.47;;;14.70;99.90;;;;;;5057522;28;20517;-59
2023/06/27 03:42:05;;;;;;;6.65;2.67;;;14.70;99.90;;;;;;5057567;28;20029;-57
2023/06/27 03:44:31;;;;;;;10.57;2.42;;;14.70;99.90;;;;;;5057444;28;20016;-59
2023/06/27 03:46:57;;;;;;;7.90;2.60;;;14.70;99.90;;;;;;5057328;28;20017;-59
2023/06/27 03:49:22;;;;;;;7.40;2.90;;;14.70;99.90;;;;;;5057620;28;20522;-59
2023/06/27 03:51:48;;;;;;;5.90;2.85;;;14.60;99.90;;;;;;5057554;28;20053;-57
2023/06/27 03:54:14;;;;;;;7.55;2.70;;;14.70;99.90;;;;;;5057475;28;20040;-56
2023/06/27 03:56:40;;;;;;;8.23;2.63;;;14.70;99.90;;;;;;5057126;28;20382;-55
2023/06/27 03:59:06;;;;;;;12.65;3.65;;;14.70;99.90;;;;;;5057429;28;20052;-54
2023/06/27 04:01:31;;;;;;;12.15;3.30;;;14.90;99.90;;;;;;5057551;28;20018;-61
2023/06/27 04:03:57;;;;;;;7.53;2.40;;;15.00;99.90;;;;;;5057342;28;20017;-58
2023/06/27 04:06:22;;;;;;;8.25;2.50;;;15.10;99.90;;;;;;5057282;28;20036;-60
2023/06/27 04:08:48;;;;;;;18.40;2.80;;;15.20;99.90;;;;;;5056003;28;20044;-54
2023/06/27 04:11:13;;;;;;;5.72;3.10;;;15.30;99.90;;;;;;5057312;28;20037;-55
2023/06/27 04:13:39;;;;;;;8.45;2.90;;;15.30;99.90;;;;;;5057106;28;20025;-56
2023/06/27 04:16:05;;;;;;;8.90;3.03;;;15.40;99.90;;;;;;5054044;28;20331;-54
2023/06/27 04:18:30;;;;;;;7.90;2.30;;;15.40;99.90;;;;;;5053958;28;20032;-55
2023/06/27 04:20:57;;;;;;;12.45;2.75;;;15.50;99.90;;;;;;5054125;28;20025;-59
2023/06/27 04:23:22;;;;;;;8.45;3.03;;;15.60;99.90;;;;;;5054072;28;20017;-60
2023/06/27 04:26:07;;;;;;;7.63;2.63;;;15.60;99.90;;;;;;5053894;28;20498;-57
2023/06/27 04:28:36;;;;;;;8.75;2.72;;;15.60;99.90;;;;;;5054126;28;20141;-59
2023/06/27 04:31:02;;;;;;;13.73;2.88;;;15.70;99.90;;;;;;5053975;28;20032;-54
2023/06/27 04:33:29;;;;;;;11.05;2.90;;;15.70;99.90;;;;;;5053863;28;20055;-57
2023/06/27 04:36:00;;;;;;;12.55;3.03;;;15.70;99.90;;;;;;5053800;28;20486;-59
2023/06/27 04:38:27;;;;;;;13.60;4.30;;;15.70;99.90;;;;;;5053506;28;20036;-57
2023/06/27 04:40:52;;;;;;;11.90;3.13;;;15.80;99.90;;;;;;5053599;28;20383;-54
2023/06/27 04:43:18;;;;;;;8.43;3.30;;;15.80;99.90;;;;;;5053754;28;20025;-56
2023/06/27 04:45:43;;;;;;;7.93;3.38;;;15.90;99.90;;;;;;5053496;28;20036;-56
2023/06/27 04:48:09;;;;;;;12.98;3.28;;;15.80;99.90;;;;;;5053591;28;20032;-55
2023/06/27 04:50:35;;;;;;;9.73;3.38;;;15.80;99.90;;;;;;5053564;28;20087;-57
2023/06/27 04:53:03;;;;;;;14.85;2.75;;;15.80;99.90;;;;;;5052244;28;20031;-58
2023/06/27 04:55:29;;;;;;;8.95;2.97;;;15.70;99.90;;;;;;5053423;28;20021;-59
2023/06/27 04:57:54;;;;;;;8.93;2.50;;;15.60;99.90;;;;;;5058307;28;20112;-64
2023/06/27 05:00:20;;;;;;;14.60;3.03;;;15.60;99.90;;;;;;5062260;28;20017;-56
2023/06/27 05:02:46;;;;;;;9.13;2.75;;;15.60;99.90;;;;;;5060772;28;20028;-58
2023/06/27 05:05:11;;;;;;;12.77;3.10;;;15.70;99.90;;;;;;5053538;28;20025;-61
2023/06/27 05:07:37;;;;;;;12.63;3.58;;;15.70;99.90;;;;;;5053364;28;20017;-60
2023/06/27 05:10:03;;;;;;;9.50;2.40;;;15.80;99.90;;;;;;5053344;28;20021;-58
2023/06/27 05:12:28;;;;;;;8.10;2.95;;;15.70;99.90;;;;;;5053311;28;20370;-58
2023/06/27 05:14:54;;;;;;;10.82;2.85;;;15.70;99.90;;;;;;5053107;28;20039;-54
2023/06/27 05:17:19;;;;;;;8.52;3.13;;;15.80;99.90;;;;;;5053024;28;20036;-59
2023/06/27 05:19:45;;;;;;;6.63;2.33;;;15.80;99.90;;;;;;5052993;28;20082;-56
2023/06/27 05:22:10;;;;;;;10.07;3.15;;;15.90;99.90;;;;;;5053067;28;20029;-59
2023/06/27 05:24:36;;;;;;;7.78;3.10;;;15.90;99.90;;;;;;5052678;28;20025;-58
2023/06/27 05:27:03;;;;;;;11.88;2.67;;;15.90;99.90;;;;;;5052397;28;20021;-57
2023/06/27 05:29:28;;;;;;;13.18;2.53;;;16.10;99.90;;;;;;5052862;28;20020;-61
2023/06/27 05:31:54;;;;;;;11.45;2.45;;;16.10;99.90;;;;;;5052807;28;20021;-54
2023/06/27 05:34:19;;;;;;;11.13;2.83;;;16.20;99.90;;;;;;5052823;28;20024;-58
2023/06/27 05:36:45;;;;;;;13.00;2.70;;;16.20;99.90;;;;;;5052500;28;20419;-59
2023/06/27 05:39:10;;;;;;;8.02;2.78;;;16.30;99.90;;;;;;5051255;28;20112;-59
2023/06/27 05:41:36;;;;;;;9.35;3.17;;;16.30;99.90;;;;;;5052500;28;20076;-57
2023/06/27 05:44:01;;;;;;;10.23;2.80;;;16.40;99.90;;;;;;5052496;28;20371;-60
2023/06/27 05:46:27;;;;;;;15.30;3.30;;;16.50;99.90;;;;;;5052295;28;20044;-60
2023/06/27 05:48:52;;;;;;;12.18;3.03;;;16.50;99.90;;;;;;5052316;28;20025;-56
2023/06/27 05:51:18;;;;;;;16.13;3.90;;;16.60;99.90;;;;;;5051295;28;20481;-56
2023/06/27 05:53:43;;;;;;;7.35;2.45;;;16.70;99.90;;;;;;5052176;28;20512;-56
2023/06/27 05:56:09;;;;;;;7.47;2.55;;;16.70;99.90;;;;;;5052184;28;20029;-56
2023/06/27 05:58:35;;;;;;;17.27;3.42;;;16.80;99.90;;;;;;5052193;28;20552;-58
2023/06/27 06:01:00;;;;;;;11.45;2.78;;;16.80;99.90;;;;;;5052374;28;20379;-60
2023/06/27 06:03:26;;;;;;;8.32;3.05;;;16.80;99.90;;;;;;5052862;28;20061;-60
2023/06/27 06:05:51;;;;;;;19.27;2.75;;;16.90;99.90;;;;;;5050780;28;20025;-58
2023/06/27 06:08:18;;;;;;;8.57;2.22;;;16.80;99.90;;;;;;5051918;28;20041;-58
2023/06/27 06:10:45;;;;;;;10.43;2.60;;;16.90;99.90;;;;;;5051994;28;20025;-60
2023/06/27 06:13:10;;;;;;;7.30;2.40;;;17.00;99.90;;;;;;5051957;28;20025;-61
2023/06/27 06:15:36;;;;;;;10.07;2.30;;;17.00;99.90;;;;;;5051814;28;20034;-57
2023/06/27 06:18:02;;;;;;;11.77;2.90;;;17.10;99.90;;;;;;5051752;28;20061;-58
2023/06/27 06:20:29;;;;;;;11.30;2.65;;;17.20;99.90;;;;;;5051903;28;20056;-58
2023/06/27 06:22:55;;;;;;;11.95;2.88;;;17.20;99.90;;;;;;5051757;28;20085;-55
2023/06/27 06:25:20;;;;;;;15.82;2.33;;;17.30;99.90;;;;;;5051897;28;20024;-56
2023/06/27 06:27:46;;;;;;;9.38;3.03;;;17.30;99.90;;;;;;5051664;28;20023;-58
2023/06/27 06:30:12;;;;;;;15.02;3.10;;;17.40;99.90;;;;;;5051812;28;20036;-59
2023/06/27 06:32:37;;;;;;;11.18;2.63;;;17.40;99.90;;;;;;5051485;28;20017;-60
2023/06/27 06:35:04;;;;;;;8.23;2.78;;;17.50;99.90;;;;;;5051524;28;20016;-52
2023/06/27 06:37:29;;;;;;;11.77;2.70;;;17.50;99.90;;;;;;5051597;28;20495;-54
2023/06/27 06:39:55;;;;;;;7.25;2.25;;;17.60;99.90;;;;;;5050680;28;20040;-59
2023/06/27 06:42:20;;;;;;;11.60;2.75;;;17.60;99.90;;;;;;5051639;28;20108;-61
2023/06/27 06:44:47;;;;;;;27.50;2.72;;;17.70;99.90;;;;;;5051368;28;20020;-58
2023/06/27 06:47:13;;;;;;;12.52;2.47;;;17.80;99.90;;;;;;5051399;28;20029;-60
2023/06/27 06:49:39;;;;;;;11.10;2.40;;;17.80;99.90;;;;;;5051253;28;20471;-60
2023/06/27 06:52:04;;;;;;;12.00;2.08;;;17.90;99.90;;;;;;5051674;28;20025;-58
2023/06/27 06:54:30;;;;;;;14.48;3.00;;;17.90;99.90;;;;;;5051500;28;20518;-60
2023/06/27 06:56:56;;;;;;;19.90;3.10;;;18.00;99.90;;;;;;5051230;28;20024;-58
2023/06/27 06:59:21;;;;;;;11.77;2.75;;;18.00;99.90;;;;;;5051402;28;20047;-61
2023/06/27 07:01:47;;;;;;;15.48;2.28;;;18.00;99.90;;;;;;5051333;28;20021;-59
2023/06/27 07:04:13;;;;;;;14.30;2.97;;;18.10;99.90;;;;;;5051369;28;20021;-56
2023/06/27 07:06:38;;;;;;;17.67;2.95;;;18.20;99.90;;;;;;5051099;28;20071;-60
2023/06/27 07:09:04;;;;;;;8.40;2.20;;;18.30;99.90;;;;;;5051184;28;20021;-56
2023/06/27 07:11:30;;;;;;;13.93;2.85;;;18.30;99.90;;;;;;5051309;28;20475;-55
2023/06/27 07:13:55;;;;;;;11.70;2.47;;;18.30;99.90;;;;;;5051007;28;20032;-53
2023/06/27 07:16:21;;;;;;;7.72;2.60;;;18.40;99.90;;;;;;5051124;28;20021;-54
2023/06/27 07:18:46;;;;;;;11.93;2.75;;;18.50;99.90;;;;;;5050936;28;20052;-60
2023/06/27 07:21:12;;;;;;;10.75;2.65;;;18.50;99.90;;;;;;5051201;28;20055;-58
2023/06/27 07:23:38;;;;;;;17.15;3.55;;;18.60;99.90;;;;;;5051078;28;20017;-57
2023/06/27 07:26:04;;;;;;;14.48;2.35;;;18.60;99.90;;;;;;5051129;28;20033;-57
2023/06/27 07:28:29;;;;;;;17.90;2.63;;;18.60;99.90;;;;;;5050907;28;20021;-58
2023/06/27 07:30:55;;;;;;;13.63;3.30;;;18.70;99.90;;;;;;5050961;28;20028;-59
2023/06/27 07:33:21;;;;;;;14.63;2.63;;;18.90;99.90;;;;;;5050990;28;20131;-61
2023/06/27 07:35:46;;;;;;;17.45;2.90;;;18.90;99.90;;;;;;5050972;28;20044;-57
2023/06/27 07:38:12;;;;;;;4.97;1.95;;;19.10;99.90;;;;;;5050677;28;20025;-56
2023/06/27 07:40:38;;;;;;;15.82;2.30;;;19.10;99.90;;;;;;5050836;28;20025;-60
2023/06/27 07:43:03;;;;;;;11.25;2.50;;;19.20;99.90;;;;;;5050964;28;20044;-58
2023/06/27 07:45:29;;;;;;;8.15;2.30;;;19.30;99.90;;;;;;5050914;28;20023;-60
2023/06/27 07:47:55;;;;;;;21.30;2.90;;;19.20;99.90;;;;;;5050726;28;20028;-59
2023/06/27 07:50:20;;;;;;;15.48;2.47;;;19.30;99.90;;;;;;5052287;28;20045;-60
2023/06/27 07:52:46;;;;;;;16.80;2.75;;;19.30;99.90;;;;;;5054612;28;20028;-57
2023/06/27 07:55:11;;;;;;;10.23;3.03;;;19.30;99.90;;;;;;5054600;28;20383;-53
2023/06/27 07:57:37;;;;;;;11.27;2.40;;;19.50;99.90;;;;;;5050597;28;20092;-52
2023/06/27 08:00:04;;;;;;;13.80;2.83;;;19.40;99.90;;;;;;5047131;28;20024;-59
2023/06/27 08:02:29;;;;;;;12.45;2.63;;;19.50;99.90;;;;;;5054402;28;20013;-59
2023/06/27 08:04:55;;;;;;;20.38;2.22;;;19.60;99.90;;;;;;5053386;28;20345;-60
2023/06/27 08:07:21;;;;;;;12.73;2.30;;;19.60;99.90;;;;;;5054426;28;20020;-59
2023/06/27 08:09:46;;;;;;;17.85;1.90;;;19.70;99.90;;;;;;5054315;28;20071;-59
2023/06/27 08:12:12;;;;;;;15.52;2.60;;;19.90;99.90;;;;;;5054455;28;20067;-57
2023/06/27 08:14:40;;;;;;;21.48;2.55;;;20.00;99.90;;;;;;5054186;28;20025;-60
2023/06/27 08:17:06;;;;;;;10.07;2.13;;;20.00;99.90;;;;;;5053952;28;20058;-61
2023/06/27 08:19:31;;;;;;;10.38;2.10;;;20.20;99.90;;;;;;5054128;28;20029;-57
2023/06/27 08:21:57;;;;;;;10.35;2.13;;;20.30;99.90;;;;;;5054065;28;20024;-59
2023/06/27 08:24:22;;;;;;;6.60;1.88;;;20.40;99.90;;;;;;5054050;28;20410;-61
2023/06/27 08:26:49;;;;;;;9.48;2.30;;;20.40;99.90;;;;;;5053884;28;20028;-60
2023/06/27 08:29:16;;;;;;;10.38;1.98;;;20.40;99.90;;;;;;5054066;28;20431;-57
2023/06/27 08:31:42;;;;;;;4.85;1.83;;;20.50;99.90;;;;;;5053860;28;20074;-57
2023/06/27 08:34:08;;;;;;;10.00;2.05;;;20.70;99.90;;;;;;5053848;28;20017;-55
2023/06/27 08:36:33;;;;;;;14.20;2.30;;;20.90;99.90;;;;;;5053622;28;20028;-60
2023/06/27 08:38:59;;;;;;;8.88;1.92;;;21.00;99.90;;;;;;5053878;28;20047;-54
2023/06/27 08:41:24;;;;;;;10.05;2.30;;;21.00;99.90;;;;;;5053661;28;20502;-58
2023/06/27 08:43:50;;;;;;;11.05;2.10;;;21.00;99.90;;;;;;5053553;28;20374;-60
2023/06/27 08:46:19;;;;;;;9.18;1.67;;;21.10;99.90;;;;;;5053386;28;20048;-60
2023/06/27 08:48:45;;;;;;;9.40;1.75;;;21.10;99.90;;;;;;5053581;28;20021;-59
2023/06/27 08:51:15;;;;;;;7.15;1.67;;;21.30;99.90;;;;;;5053654;28;20020;-58
2023/06/27 08:53:44;;;;;;;12.80;2.38;;;21.30;99.90;;;;;;5053350;28;20024;-59
2023/06/27 08:56:15;;;;;;;13.60;1.67;;;21.40;99.90;;;;;;5053300;28;20041;-56
2023/06/27 08:58:59;;;;;;;11.52;2.70;;;21.40;99.90;;;;;;5053335;28;20033;-55
2023/06/27 09:01:27;;;;;;;7.57;2.00;;;21.30;99.90;;;;;;5052859;28;20045;-59
2023/06/27 09:03:53;;;;;;;9.48;1.70;;;21.40;99.90;;;;;;5053263;28;20375;-59
2023/06/27 09:06:19;;;;;;;8.55;2.20;;;21.50;99.90;;;;;;5053082;28;20017;-61
2023/06/27 09:08:44;;;;;;;6.85;1.42;;;21.60;99.90;;;;;;5053055;28;20526;-58
2023/06/27 09:11:10;;;;;;;6.78;1.77;;;21.60;99.90;;;;;;5053343;28;20021;-60
2023/06/27 09:13:37;;;;;;;11.70;1.85;;;21.70;99.90;;;;;;5053026;28;20021;-60
2023/06/27 09:16:04;;;;;;;7.90;1.52;;;21.70;99.90;;;;;;5053292;28;20064;-59
2023/06/27 09:18:30;;;;;;;6.28;1.30;;;21.60;99.90;;;;;;5052887;28;20044;-59
2023/06/27 09:20:56;;;;;;;4.22;1.30;;;21.70;99.90;;;;;;5052940;28;20091;-60
2023/06/27 09:23:22;;;;;;;8.32;1.50;;;21.80;99.90;;;;;;5052996;28;20036;-60
2023/06/27 09:26:06;;;;;;;5.68;1.13;;;21.80;99.90;;;;;;5052823;28;20090;-57
2023/06/27 09:28:42;;;;;;;8.20;1.50;;;21.70;99.90;;;;;;5052815;28;20506;-59
2023/06/27 09:31:10;;;;;;;4.72;1.35;;;21.60;99.90;;;;;;5052862;28;20479;-59
2023/06/27 09:33:36;;;;;;;8.10;1.70;;;21.80;99.90;;;;;;5052628;28;20151;-57
2023/06/27 09:36:01;;;;;;;4.28;1.50;;;22.20;99.90;;;;;;5052831;28;20091;-60
2023/06/27 09:38:31;;;;;;;5.40;1.45;;;22.20;99.90;;;;;;5052366;28;20372;-60
2023/06/27 09:41:04;;;;;;;11.55;1.63;;;22.10;99.90;;;;;;5052660;28;20025;-58
2023/06/27 09:43:32;;;;;;;6.05;1.48;;;22.00;99.90;;;;;;5052695;28;20074;-56
2023/06/27 09:45:59;;;;;;;9.00;1.50;;;21.90;99.90;;;;;;5052365;28;20017;-57
2023/06/27 09:48:24;;;;;;;3.33;1.63;;;21.90;99.90;;;;;;5052313;28;20025;-58
2023/06/27 09:51:03;;;;;;;8.43;1.55;;;21.90;99.90;;;;;;5051164;28;20036;-58
2023/06/27 09:53:33;;;;;;;10.38;1.60;;;21.80;99.90;;;;;;5052574;28;20024;-60
2023/06/27 09:56:00;;;;;;;6.82;1.30;;;21.70;99.90;;;;;;5052638;28;20025;-61
2023/06/27 09:58:30;;;;;;;5.85;1.02;;;21.80;99.90;;;;;;5052048;28;20017;-60
2023/06/27 10:01:05;;;;;;;7.43;1.27;;;21.90;99.90;;;;;;5052238;28;20028;-60
2023/06/27 10:03:35;;;;;;;6.10;1.30;;;21.90;99.90;;;;;;5052030;28;20025;-60
2023/06/27 10:06:02;;;;;;;5.25;1.25;;;21.80;99.90;;;;;;5052324;28;20111;-60
2023/06/27 10:08:28;;;;;;;8.63;1.90;;;21.80;99.90;;;;;;5052076;28;20021;-58
2023/06/27 10:11:00;;;;;;;2.90;0.95;;;22.00;99.90;;;;;;5052211;28;20029;-60
2023/06/27 10:13:25;;;;;;;13.68;1.95;;;22.20;99.90;;;;;;5051190;28;20028;-57
2023/06/27 10:15:51;;;;;;;5.47;1.30;;;22.00;99.90;;;;;;5051833;28;20021;-58
2023/06/27 10:18:17;;;;;;;3.63;1.20;;;22.00;99.90;;;;;;5051643;28;20029;-58
2023/06/27 10:20:43;;;;;;;3.97;1.65;;;22.20;99.90;;;;;;5051840;28;20029;-60
2023/06/27 10:23:09;;;;;;;2.50;1.25;;;22.10;99.90;;;;;;5052130;28;20048;-57
2023/06/27 10:25:35;;;;;;;1.98;0.90;;;22.10;99.90;;;;;;5051714;28;20021;-59
2023/06/27 10:28:08;;;;;;;6.20;1.52;;;22.30;99.90;;;;;;5051725;28;20083;-59
2023/06/27 10:30:44;;;;;;;3.47;1.10;;;22.40;99.90;;;;;;5051753;28;20100;-57
2023/06/27 10:33:20;;;;;;;9.45;1.92;;;22.70;99.90;;;;;;5051772;28;20028;-56
2023/06/27 10:35:51;;;;;;;4.75;1.58;;;22.70;99.90;;;;;;5051820;28;20103;-60
2023/06/27 10:38:18;;;;;;;9.77;1.88;;;22.50;99.90;;;;;;5051362;28;20056;-60
2023/06/27 10:43:54;;;;;;;8.00;1.70;;;22.60;99.90;;;;;;5051514;28;20078;-59
2023/06/27 10:46:26;;;;;;;14.50;1.52;;;22.60;99.90;;;;;;5051442;28;20013;-55
2023/06/27 10:49:01;;;;;;;8.88;1.50;;;22.40;99.90;;;;;;5051455;28;20044;-62
2023/06/27 10:51:41;;;;;;;5.25;1.30;;;22.10;99.90;;;;;;5051516;28;20494;-58
2023/06/27 10:54:07;;;;;;;7.53;1.33;;;22.00;99.90;;;;;;5051265;28;20032;-59
2023/06/27 10:56:37;;;;;;;8.32;1.48;;;22.40;99.90;;;;;;5051380;28;20021;-61
2023/06/27 10:59:04;;;;;;;8.43;1.38;;;22.90;99.90;;;;;;5051453;28;20487;-60
2023/06/27 11:01:34;;;;;;;9.20;1.80;;;23.00;99.90;;;;;;5051399;28;20024;-56
2023/06/27 11:04:10;;;;;;;7.97;1.38;;;22.90;97.90;;;;;;5051239;28;20020;-56
2023/06/27 11:06:40;;;;;;;6.97;1.30;;;22.80;98.00;;;;;;5051104;28;20021;-56
2023/06/27 11:09:10;;;;;;;6.72;1.27;;;22.60;99.40;;;;;;5051310;28;20479;-58
2023/06/27 11:11:37;;;;;;;6.32;1.60;;;22.90;99.90;;;;;;5051598;28;20024;-57
2023/06/27 11:14:07;;;;;;;10.25;1.50;;;23.00;99.90;;;;;;5051291;28;20078;-53
2023/06/27 11:16:34;;;;;;;8.25;1.40;;;22.90;99.90;;;;;;5050940;28;20039;-57
2023/06/27 11:19:03;;;;;;;8.65;1.70;;;23.30;99.90;;;;;;5051159;28;20032;-54
2023/06/27 11:21:31;;;;;;;3.78;1.55;;;23.40;98.10;;;;;;5051199;28;20017;-60
2023/06/27 11:23:57;;;;;;;3.22;1.25;;;23.30;98.60;;;;;;5050937;28;20021;-60
2023/06/27 11:26:24;;;;;;;8.57;1.85;;;23.50;98.60;;;;;;5054286;28;20082;-60
2023/06/27 11:28:49;;;;;;;10.57;1.73;;;23.90;98.80;;;;;;5055090;28;20021;-57
2023/06/27 11:31:16;;;;;;;9.90;1.85;;;24.00;97.80;;;;;;5055213;28;20040;-55
2023/06/27 11:33:41;;;;;;;7.05;1.33;;;23.70;96.50;;;;;;5055077;28;20029;-55
2023/06/27 11:36:09;;;;;;;6.43;1.20;;;23.40;97.10;;;;;;5054993;28;20032;-56
2023/06/27 11:38:35;;;;;;;4.05;1.48;;;23.60;97.50;;;;;;5054888;28;20064;-57
2023/06/27 11:41:01;;;;;;;7.65;1.55;;;24.00;95.40;;;;;;5054907;28;20098;-59
2023/06/27 11:43:27;;;;;;;7.40;1.70;;;24.10;94.90;;;;;;5054769;28;20021;-54
2023/06/27 11:45:55;;;;;;;10.68;1.40;;;24.30;94.80;;;;;;5054936;28;20028;-60
2023/06/27 11:48:20;;;;;;;8.05;1.35;;;24.20;94.30;;;;;;5054895;28;20053;-57
2023/06/27 11:50:56;;;;;;;6.35;1.40;;;24.20;93.40;;;;;;5054821;28;20435;-61
2023/06/27 11:53:28;;;;;;;4.05;1.40;;;24.30;94.20;;;;;;5054677;28;20024;-58
2023/06/27 11:55:55;;;;;;;6.57;1.58;;;24.80;92.70;;;;;;5054500;28;20051;-55
2023/06/27 11:58:29;;;;;;;6.68;1.40;;;24.60;92.50;;;;;;5054435;28;20024;-56
2023/06/27 12:00:55;;;;;;;6.75;1.50;;;24.40;93.30;;;;;;5054493;28;20063;-58
2023/06/27 12:03:28;;;;;;;8.80;1.40;;;23.80;92.90;;;;;;5054469;28;20021;-56
2023/06/27 12:05:56;;;;;;;10.00;1.73;;;24.00;92.60;;;;;;5054415;28;20083;-55
2023/06/27 12:08:28;;;;;;;5.70;1.13;;;24.20;90.90;;;;;;5054291;28;20112;-54
2023/06/27 12:10:58;;;;;;;2.90;1.10;;;24.60;91.00;;;;;;5054545;28;20029;-58
2023/06/27 12:13:35;;;;;;;4.60;1.42;;;24.40;92.20;;;;;;5054453;28;20020;-57
2023/06/27 12:16:02;;;;;;;9.65;1.73;;;24.20;92.60;;;;;;5054477;28;20025;-57
2023/06/27 12:18:28;;;;;;;9.10;1.50;;;24.20;92.50;;;;;;5054073;28;20386;-55
2023/06/27 12:20:55;;;;;;;8.88;1.63;;;24.30;92.40;;;;;;5054121;28;20013;-59
2023/06/27 12:23:21;;;;;;;13.30;1.70;;;24.50;92.10;;;;;;5054301;28;20028;-59
2023/06/27 12:25:47;;;;;;;10.20;1.60;;;24.60;92.00;;;;;;5054140;28;20021;-57
2023/06/27 12:28:13;;;;;;;5.78;1.38;;;24.60;91.00;;;;;;5053920;28;20572;-58
2023/06/27 12:30:39;;;;;;;4.85;1.23;;;24.80;91.10;;;;;;5053910;28;20024;-59
2023/06/27 12:33:08;;;;;;;10.93;1.42;;;24.90;90.80;;;;;;5053953;28;20024;-60
2023/06/27 12:35:34;;;;;;;5.85;1.30;;;25.00;91.20;;;;;;5053721;28;20102;-55
2023/06/27 12:38:00;;;;;;;6.25;1.15;;;24.90;91.60;;;;;;5052612;28;20036;-58
2023/06/27 12:40:26;;;;;;;4.97;1.40;;;25.00;90.50;;;;;;5053942;28;20029;-57
2023/06/27 12:42:52;;;;;;;4.90;1.52;;;24.80;90.30;;;;;;5053702;28;20017;-55
2023/06/27 12:45:19;;;;;;;5.60;1.17;;;24.50;90.00;;;;;;5053737;28;20502;-58